Deline Airport


Codes: CYWJ/YWJ
Name: Deline Airport
City: Deline
Country: Canada
Elevation: 703 ft.
Wikipedia:

Photos at Deline Airport


   Photos courtesy of SpottingLog. You can add your own sightings and photos by signing up for a free trial today.



No photos found.

Weather at Deline Airport


Time (UTC)DescriptionTempratureWindCloud coverageVisibilityPressureHumidity
19-Apr-2024 03:00Overcast Clouds2°C4 mph, SE92%10000m1027hPa90%
19-Apr-2024 06:00Overcast Clouds1°C2 mph, NE93%10000m1027hPa91%
19-Apr-2024 09:00Broken Clouds0°C2 mph, NW74%10000m1027hPa92%
19-Apr-2024 12:00Broken Clouds-1°C4 mph, NW64%10000m1027hPa93%
19-Apr-2024 15:00Overcast Clouds1°C4 mph, NW100%10000m1026hPa80%
19-Apr-2024 18:00Overcast Clouds5°C7 mph, NW100%10000m1026hPa64%
19-Apr-2024 21:00Overcast Clouds6°C4 mph, N89%10000m1026hPa61%
20-Apr-2024 00:00Broken Clouds3°C9 mph, E68%9541m1027hPa85%
20-Apr-2024 03:00Broken Clouds-1°C11 mph, E77%10000m1027hPa94%
20-Apr-2024 06:00Broken Clouds-1°C9 mph, E84%10000m1026hPa93%
20-Apr-2024 09:00Overcast Clouds-1°C11 mph, E95%10000m1025hPa92%
20-Apr-2024 12:00Overcast Clouds-0°C11 mph, E93%10000m1022hPa93%
20-Apr-2024 15:00Overcast Clouds-0°C13 mph, E99%10000m1020hPa92%
20-Apr-2024 18:00Overcast Clouds1°C13 mph, SE99%10000m1018hPa85%
20-Apr-2024 21:00Overcast Clouds4°C13 mph, SE100%10000m1016hPa75%
21-Apr-2024 00:00Overcast Clouds3°C11 mph, E99%10000m1014hPa80%
21-Apr-2024 03:00Overcast Clouds2°C9 mph, E100%10000m1013hPa86%
21-Apr-2024 06:00Overcast Clouds0°C9 mph, E100%10000m1012hPa92%
21-Apr-2024 09:00Overcast Clouds1°C7 mph, E97%10000m1011hPa94%
21-Apr-2024 12:00Overcast Clouds0°C2 mph, NE99%10000m1011hPa94%
21-Apr-2024 15:00Light Snow1°C4 mph, NW100%10000m1011hPa95%
21-Apr-2024 18:00Overcast Clouds1°C9 mph, NW100%10000m1012hPa87%
21-Apr-2024 21:00Overcast Clouds1°C11 mph, NW100%10000m1013hPa81%
22-Apr-2024 00:00Overcast Clouds2°C9 mph, NW100%10000m1014hPa77%
22-Apr-2024 03:00Overcast Clouds1°C7 mph, N100%10000m1015hPa77%
22-Apr-2024 06:00Overcast Clouds-1°C4 mph, NW98%10000m1016hPa83%
22-Apr-2024 09:00Overcast Clouds-1°C4 mph, NW100%10000m1017hPa84%
22-Apr-2024 12:00Overcast Clouds-2°C4 mph, NW100%10000m1018hPa86%
22-Apr-2024 15:00Overcast Clouds-1°C7 mph, NW100%10000m1019hPa78%
22-Apr-2024 18:00Overcast Clouds0°C9 mph, NW99%10000m1020hPa66%
22-Apr-2024 21:00Overcast Clouds1°C9 mph, NW100%10000m1021hPa64%
23-Apr-2024 00:00Overcast Clouds1°C9 mph, NW100%10000m1021hPa64%
23-Apr-2024 03:00Overcast Clouds0°C7 mph, N99%10000m1022hPa71%
23-Apr-2024 06:00Overcast Clouds-2°C4 mph, E86%10000m1023hPa84%
23-Apr-2024 09:00Scattered Clouds-4°C2 mph, SE31%10000m1023hPa90%
23-Apr-2024 12:00Broken Clouds-4°C2 mph, E63%10000m1024hPa87%
23-Apr-2024 15:00Overcast Clouds-3°C4 mph, E100%10000m1024hPa81%
23-Apr-2024 18:00Overcast Clouds-1°C7 mph, E98%10000m1024hPa73%
23-Apr-2024 21:00Broken Clouds-0°C9 mph, E65%10000m1023hPa70%
24-Apr-2024 00:00Broken Clouds-1°C11 mph, E56%10000m1023hPa69%